Time;durP1;ratioP1;P1;durP2;ratioP2;P2;SDS_P1;SDS_P2;PMS_P1;PMS_P2;Temp;Humidity;BMP_temperature;BMP_pressure;BME280_temperature;BME280_humidity;BME280_pressure;Samples;Min_cycle;Max_cycle;Signal;HPM_P1;HPM_P2
2020/12/20 00:00:42;;;;;;;55.45;34.40;;;;;;;1.13;80.96;101266.02;126438;1100;26689;-75
2020/12/20 00:03:10;;;;;;;45.20;31.15;;;;;;;1.13;81.11;101254.38;126481;1100;23386;-75
2020/12/20 00:05:38;;;;;;;46.15;29.90;;;;;;;1.11;81.00;101253.63;126377;1100;23320;-76
2020/12/20 00:08:06;;;;;;;53.70;33.20;;;;;;;1.10;81.22;101258.16;126462;1100;23340;-75
2020/12/20 00:10:35;;;;;;;47.33;33.10;;;;;;;1.10;80.93;101259.98;126425;1098;23537;-75
2020/12/20 00:13:03;;;;;;;48.13;32.35;;;;;;;1.09;81.03;101263.63;126467;1100;27901;-75
2020/12/20 00:15:33;;;;;;;50.60;29.90;;;;;;;1.09;80.92;101272.58;126473;1098;23358;-75
2020/12/20 00:18:06;;;;;;;45.05;29.70;;;;;;;1.10;81.23;101268.05;126831;1098;23386;-75
2020/12/20 00:20:41;;;;;;;51.05;29.02;;;;;;;1.09;81.02;101271.69;126848;1099;23334;-74
2020/12/20 00:23:12;;;;;;;50.83;31.60;;;;;;;1.09;81.32;101271.69;126927;1098;23343;-74
2020/12/20 00:25:41;;;;;;;43.83;28.57;;;;;;;1.11;81.36;101270.64;126422;1098;23604;-74
2020/12/20 00:28:09;;;;;;;43.17;28.12;;;;;;;1.11;81.29;101267.06;126853;1099;26978;-74
2020/12/20 00:30:37;;;;;;;45.58;28.67;;;;;;;1.11;81.16;101272.45;126373;1100;23801;-74
2020/12/20 00:33:05;;;;;;;40.95;26.85;;;;;;;1.11;81.27;101267.06;126353;1100;23306;-75
2020/12/20 00:35:34;;;;;;;59.70;32.42;;;;;;;1.10;81.19;101270.73;126388;1100;23334;-74
2020/12/20 00:38:02;;;;;;;50.10;31.05;;;;;;;1.07;81.22;101263.77;126422;1100;23808;-75
2020/12/20 00:40:30;;;;;;;49.23;30.27;;;;;;;1.07;81.30;101269.14;126415;1100;23395;-75
2020/12/20 00:42:58;;;;;;;46.80;31.42;;;;;;;1.08;81.76;101267.30;126390;1100;23391;-75
2020/12/20 00:45:26;;;;;;;43.80;28.23;;;;;;;1.09;81.21;101274.37;126553;1099;23352;-74
2020/12/20 00:47:54;;;;;;;50.47;30.03;;;;;;;1.06;81.02;101267.40;126842;1098;24518;-74
2020/12/20 00:50:23;;;;;;;41.33;27.55;;;;;;;1.05;81.14;101263.01;126452;1100;23376;-75
2020/12/20 00:52:51;;;;;;;50.17;33.23;;;;;;;1.04;81.11;101266.64;126842;1098;24944;-75
2020/12/20 00:55:19;;;;;;;47.17;31.02;;;;;;;1.05;80.98;101270.22;126446;1100;23310;-75
2020/12/20 00:57:48;;;;;;;45.55;29.05;;;;;;;1.01;81.19;101266.88;126457;1098;23661;-77
2020/12/20 01:00:16;;;;;;;41.83;26.65;;;;;;;1.00;81.22;101276.77;126826;1100;23443;-74
2020/12/20 01:02:45;;;;;;;47.73;29.50;;;;;;;1.01;81.36;101278.47;126477;1098;23324;-75
2020/12/20 01:05:13;;;;;;;46.15;27.37;;;;;;;1.05;81.42;101280.97;126422;1099;26333;-76
2020/12/20 01:07:41;;;;;;;42.00;24.65;;;;;;;1.01;81.35;101267.72;126430;1100;23782;-76
2020/12/20 01:10:10;;;;;;;43.98;26.57;;;;;;;1.01;81.31;101278.47;126464;1100;23326;-74
2020/12/20 01:12:38;;;;;;;47.90;30.43;;;;;;;1.01;81.26;101278.47;126433;1098;23911;-75
2020/12/20 01:15:11;;;;;;;45.83;29.23;;;;;;;1.02;80.92;101284.70;126495;1100;23344;-74
2020/12/20 01:17:42;;;;;;;43.73;29.30;;;;;;;1.04;81.11;101279.23;126726;1098;27290;-75
2020/12/20 01:20:12;;;;;;;43.63;27.48;;;;;;;1.04;81.36;101271.17;126627;1100;26408;-75
2020/12/20 01:22:41;;;;;;;43.40;25.65;;;;;;;1.05;81.36;101267.53;126840;1098;23718;-77
2020/12/20 01:25:11;;;;;;;40.70;26.77;;;;;;;1.04;81.23;101273.85;126445;1098;23382;-74
2020/12/20 01:27:40;;;;;;;41.57;25.17;;;;;;;1.00;81.33;101257.96;126542;1100;23379;-74
2020/12/20 01:30:10;;;;;;;45.78;29.25;;;;;;;0.98;81.33;101262.58;126377;1100;26545;-74
2020/12/20 01:32:38;;;;;;;41.93;27.67;;;;;;;0.95;81.25;101261.92;126389;1100;27964;-74
2020/12/20 01:35:10;;;;;;;38.77;26.10;;;;;;;0.94;81.16;101255.70;126439;1100;23349;-75
2020/12/20 01:37:39;;;;;;;39.57;26.93;;;;;;;0.93;81.34;101253.96;126428;1100;23908;-74
2020/12/20 01:40:09;;;;;;;39.53;25.00;;;;;;;0.95;81.31;101254.72;126517;1100;23401;-74
2020/12/20 01:42:38;;;;;;;45.98;25.43;;;;;;;0.96;81.35;101263.63;126439;1100;23353;-73
2020/12/20 01:45:09;;;;;;;43.38;24.23;;;;;;;0.95;81.34;101256.55;126455;1101;27205;-76
2020/12/20 01:47:42;;;;;;;42.33;26.10;;;;;;;0.93;81.30;101251.28;126417;1100;23573;-77
2020/12/20 01:50:13;;;;;;;41.58;25.75;;;;;;;0.92;81.32;101254.95;126409;1100;23443;-76
2020/12/20 01:52:43;;;;;;;38.17;24.23;;;;;;;0.90;81.50;101247.97;126372;1100;23334;-77
2020/12/20 01:55:19;;;;;;;40.33;24.50;;;;;;;0.92;81.43;101257.63;126371;1100;23348;-74
2020/12/20 01:58:01;;;;;;;39.57;23.20;;;;;;;0.91;81.46;101242.46;126354;1100;23607;-75
2020/12/20 02:00:43;;;;;;;39.10;24.15;;;;;;;0.89;81.20;101236.34;126374;1100;23401;-75
2020/12/20 02:03:31;;;;;;;43.73;25.80;;;;;;;0.87;81.15;101240.10;126393;1100;23774;-75
2020/12/20 02:06:00;;;;;;;40.63;26.02;;;;;;;0.86;81.50;101246.45;126399;1100;24979;-76
2020/12/20 02:08:29;;;;;;;46.50;26.93;;;;;;;0.87;81.50;101246.33;126435;1101;23346;-75
2020/12/20 02:11:16;;;;;;;43.52;28.20;;;;;;;0.88;81.49;101250.75;126471;1100;23540;-75
2020/12/20 02:13:52;;;;;;;48.03;27.20;;;;;;;0.88;81.47;101256.12;126373;1100;26452;-75
2020/12/20 02:16:27;;;;;;;35.37;22.70;;;;;;;0.88;81.53;101248.06;126380;1100;23339;-74
2020/12/20 02:18:55;;;;;;;43.10;23.47;;;;;;;0.88;81.46;101244.52;126365;1100;23385;-75
2020/12/20 02:21:24;;;;;;;45.63;27.22;;;;;;;0.88;81.54;101248.06;126404;1099;26433;-75
2020/12/20 02:23:57;;;;;;;40.92;25.17;;;;;;;0.86;81.50;101241.94;126367;1100;23386;-76
2020/12/20 02:26:31;;;;;;;45.10;27.52;;;;;;;0.87;81.33;101248.16;126370;1100;23520;-76
2020/12/20 02:29:00;;;;;;;34.10;24.80;;;;;;;0.87;81.49;101248.16;126382;1100;23546;-76
2020/12/20 02:31:29;;;;;;;38.90;26.07;;;;;;;0.88;81.67;101250.75;126413;1100;23408;-76
2020/12/20 02:34:01;;;;;;;41.75;26.77;;;;;;;0.88;81.59;101245.38;126355;1100;29120;-77
2020/12/20 02:36:30;;;;;;;37.93;25.88;;;;;;;0.87;81.52;101240.95;126453;1100;23431;-75
2020/12/20 02:38:59;;;;;;;47.78;29.02;;;;;;;0.87;81.45;101232.05;126387;1100;23451;-75
2020/12/20 02:41:40;;;;;;;43.85;30.30;;;;;;;0.86;81.72;101236.56;126331;1100;26833;-75
2020/12/20 02:44:10;;;;;;;43.73;28.37;;;;;;;0.86;81.68;101241.94;126325;1100;23461;-75
2020/12/20 02:46:43;;;;;;;46.13;28.23;;;;;;;0.89;81.75;101241.70;126334;1100;24150;-74
2020/12/20 02:49:19;;;;;;;46.80;28.37;;;;;;;0.91;81.61;101239.77;126392;1100;23396;-75
2020/12/20 02:51:48;;;;;;;39.42;25.30;;;;;;;0.92;81.82;101241.52;126391;1101;25021;-75
2020/12/20 02:54:17;;;;;;;35.35;23.55;;;;;;;0.93;81.42;101245.91;126389;1101;23395;-74
2020/12/20 02:56:46;;;;;;;34.75;22.37;;;;;;;0.93;81.59;101243.22;126388;1101;23536;-77
2020/12/20 02:59:26;;;;;;;35.23;21.23;;;;;;;0.91;81.36;101234.41;126370;1101;23398;-76
2020/12/20 03:01:56;;;;;;;36.17;22.35;;;;;;;0.89;81.52;101224.73;126369;1101;23397;-75
2020/12/20 03:04:24;;;;;;;35.13;23.00;;;;;;;0.87;81.58;101227.52;126367;1101;24984;-76
2020/12/20 03:06:52;;;;;;;37.88;24.12;;;;;;;0.84;81.61;101225.06;126799;1101;23335;-77
2020/12/20 03:09:20;;;;;;;30.95;20.08;;;;;;;0.83;81.49;101220.64;126410;1101;23378;-78
2020/12/20 03:11:49;;;;;;;32.17;21.30;;;;;;;0.81;81.58;101227.95;126423;1101;23420;-77
2020/12/20 03:14:19;;;;;;;37.20;22.40;;;;;;;0.79;81.44;101225.39;126409;1101;26532;-77
2020/12/20 03:16:54;;;;;;;33.55;21.50;;;;;;;0.79;81.37;101232.56;126381;1101;23489;-76
2020/12/20 03:19:22;;;;;;;36.53;22.60;;;;;;;0.77;81.70;101231.84;126382;1101;26855;-75
2020/12/20 03:21:52;;;;;;;36.10;22.13;;;;;;;0.76;81.41;101233.64;126327;1101;23335;-75
2020/12/20 03:24:43;;;;;;;32.33;21.00;;;;;;;0.75;81.34;101228.41;126258;1101;23858;-74
2020/12/20 03:27:35;;;;;;;34.90;21.80;;;;;;;0.72;81.43;101232.14;126425;1101;26069;-75
2020/12/20 03:30:28;;;;;;;38.10;24.52;;;;;;;0.73;81.40;101235.70;126217;1101;23466;-76
2020/12/20 03:33:14;;;;;;;44.63;25.45;;;;;;;0.70;81.39;101231.38;126359;1102;23386;-75
2020/12/20 03:36:18;;;;;;;41.35;24.47;;;;;;;0.70;81.54;101234.06;126379;1101;27935;-75
2020/12/20 03:38:47;;;;;;;36.17;23.17;;;;;;;0.71;81.58;101232.27;126381;1101;23398;-76
2020/12/20 03:41:16;;;;;;;38.98;25.37;;;;;;;0.70;81.42;101236.75;126384;1101;26536;-74
2020/12/20 03:43:45;;;;;;;35.85;25.95;;;;;;;0.69;81.61;101245.79;126336;1102;23332;-74
2020/12/20 03:46:14;;;;;;;38.13;24.00;;;;;;;0.68;81.50;101245.89;126364;1101;23399;-75
2020/12/20 03:48:47;;;;;;;46.58;28.90;;;;;;;0.66;81.31;101235.23;126358;1101;23520;-74
2020/12/20 03:51:19;;;;;;;60.33;32.40;;;;;;;0.64;81.28;101234.52;126373;1100;27929;-75
2020/12/20 03:53:54;;;;;;;59.73;35.23;;;;;;;0.63;81.25;101231.93;126386;1100;23359;-75
2020/12/20 03:56:23;;;;;;;46.18;32.00;;;;;;;0.63;81.52;101231.93;126369;1100;27942;-74
2020/12/20 03:59:09;;;;;;;42.33;30.08;;;;;;;0.62;81.38;101228.39;126364;1100;23336;-74
2020/12/20 04:01:37;;;;;;;37.58;23.35;;;;;;;0.63;81.43;101239.98;126412;1100;23334;-75
2020/12/20 04:04:06;;;;;;;38.15;23.75;;;;;;;0.60;81.49;101235.69;126385;1100;24400;-75
2020/12/20 04:06:35;;;;;;;39.80;25.50;;;;;;;0.58;81.26;101238.47;126370;1100;23405;-75
2020/12/20 04:09:03;;;;;;;36.93;23.87;;;;;;;0.58;81.58;101233.10;126332;1101;23516;-75
2020/12/20 04:12:03;;;;;;;34.63;22.48;;;;;;;0.57;81.58;101220.63;126294;1101;23334;-76
2020/12/20 04:14:31;;;;;;;34.83;23.00;;;;;;;0.55;81.61;101211.81;126417;1100;23510;-75
2020/12/20 04:16:59;;;;;;;45.73;29.52;;;;;;;0.55;81.34;101210.96;126387;1100;23509;-74
2020/12/20 04:19:28;;;;;;;83.25;45.80;;;;;;;0.52;81.58;101212.05;126395;1100;23683;-75
2020/12/20 04:22:02;;;;;;;91.37;48.25;;;;;;;0.52;81.50;101205.81;126424;1100;26411;-75
2020/12/20 04:25:05;;;;;;;81.80;43.80;;;;;;;0.50;81.53;101208.60;126371;1100;24001;-77
2020/12/20 04:27:42;;;;;;;57.33;35.35;;;;;;;0.48;81.48;101212.36;126341;1100;23389;-75
2020/12/20 04:30:11;;;;;;;60.33;34.50;;;;;;;0.47;81.51;101214.20;126398;1100;23476;-76
2020/12/20 04:32:39;;;;;;;56.48;34.18;;;;;;;0.45;81.33;101205.39;126431;1100;24922;-76
2020/12/20 04:35:11;;;;;;;49.60;30.90;;;;;;;0.46;81.58;101215.14;126390;1101;24300;-75
2020/12/20 04:37:41;;;;;;;45.52;30.27;;;;;;;0.46;81.50;101222.34;126441;1100;23344;-75
2020/12/20 04:40:25;;;;;;;46.10;30.12;;;;;;;0.45;81.50;101225.98;126360;1100;23397;-75
2020/12/20 04:43:09;;;;;;;49.90;32.60;;;;;;;0.44;81.80;101222.44;126459;1100;24359;-75
2020/12/20 04:45:39;;;;;;;49.63;34.05;;;;;;;0.47;81.88;101219.56;126482;1100;23418;-75
2020/12/20 04:48:13;;;;;;;45.05;31.50;;;;;;;0.49;81.84;101220.32;126349;1100;23434;-74
2020/12/20 04:50:51;;;;;;;50.08;29.85;;;;;;;0.50;81.62;101219.34;126345;1100;23401;-74
2020/12/20 04:53:23;;;;;;;44.95;28.40;;;;;;;0.49;81.57;101212.27;126412;1100;23412;-73
2020/12/20 04:56:10;;;;;;;44.45;29.00;;;;;;;0.49;81.51;101217.63;126356;1100;23771;-74
2020/12/20 04:59:02;;;;;;;40.78;27.25;;;;;;;0.47;81.39;101224.05;126330;1100;27892;-73
2020/12/20 05:01:35;;;;;;;43.47;27.87;;;;;;;0.44;81.28;101210.84;126376;1100;23520;-74
2020/12/20 05:04:04;;;;;;;45.63;27.60;;;;;;;0.43;81.35;101222.53;126368;1100;25295;-73
2020/12/20 05:06:33;;;;;;;42.35;27.40;;;;;;;0.43;81.54;101220.73;126355;1101;23908;-74
2020/12/20 05:09:13;;;;;;;37.88;24.98;;;;;;;0.42;81.44;101221.69;126323;1100;23327;-74
2020/12/20 05:11:47;;;;;;;36.23;23.73;;;;;;;0.40;81.30;101234.34;126439;1101;23388;-74
2020/12/20 05:14:35;;;;;;;33.42;24.10;;;;;;;0.40;81.41;101231.66;126368;1100;23438;-76
2020/12/20 05:17:18;;;;;;;34.03;23.40;;;;;;;0.39;81.47;101225.44;126436;1100;23484;-74
2020/12/20 05:20:08;;;;;;;38.25;24.50;;;;;;;0.38;81.42;101229.11;126407;1100;23444;-73
2020/12/20 05:22:38;;;;;;;50.70;30.52;;;;;;;0.40;81.55;101234.34;126387;1100;23401;-74
2020/12/20 05:25:17;;;;;;;45.75;25.32;;;;;;;0.37;81.32;101234.58;126387;1100;26536;-75
2020/12/20 05:27:51;;;;;;;38.45;23.73;;;;;;;0.36;81.33;101243.58;126365;1100;23341;-74
2020/12/20 05:30:27;;;;;;;35.08;24.52;;;;;;;0.34;81.56;101230.28;126369;1100;23389;-74
2020/12/20 05:33:29;;;;;;;36.83;24.32;;;;;;;0.33;81.69;101241.11;126240;1100;23346;-74
2020/12/20 05:36:08;;;;;;;41.50;26.77;;;;;;;0.30;81.64;101234.13;126388;1100;23389;-76
2020/12/20 05:38:37;;;;;;;46.68;27.98;;;;;;;0.31;81.41;101237.67;126633;1100;23398;-73
2020/12/20 05:41:07;;;;;;;36.17;26.85;;;;;;;0.29;81.37;101244.97;126456;1100;23401;-76
2020/12/20 05:43:35;;;;;;;40.08;27.35;;;;;;;0.29;81.75;101247.64;126400;1098;23382;-74
2020/12/20 05:46:05;;;;;;;43.52;27.32;;;;;;;0.29;81.85;101250.33;126477;1100;26855;-75
2020/12/20 05:48:43;;;;;;;39.50;26.50;;;;;;;0.31;81.80;101245.72;126450;1100;26571;-75
2020/12/20 05:51:16;;;;;;;43.33;24.90;;;;;;;0.30;82.05;101244.87;126399;1098;23400;-74
2020/12/20 05:53:44;;;;;;;45.85;26.35;;;;;;;0.31;81.71;101251.09;126426;1100;23632;-74
2020/12/20 05:56:18;;;;;;;47.83;30.65;;;;;;;0.30;81.55;101257.41;126445;1100;23379;-74
2020/12/20 05:58:46;;;;;;;46.28;29.40;;;;;;;0.31;81.83;101262.67;126514;1099;23328;-74
2020/12/20 06:01:20;;;;;;;55.08;33.78;;;;;;;0.31;81.78;101256.45;126423;1100;27896;-76
2020/12/20 06:03:48;;;;;;;63.68;37.00;;;;;;;0.33;81.74;101259.90;126422;1100;23399;-74
2020/12/20 06:06:19;;;;;;;66.00;42.08;;;;;;;0.33;81.74;101259.90;126365;1100;23320;-75
2020/12/20 06:08:50;;;;;;;51.08;32.55;;;;;;;0.29;81.41;101261.92;126380;1100;23350;-76
2020/12/20 06:11:25;;;;;;;51.07;33.03;;;;;;;0.27;81.39;101260.31;126373;1100;23470;-74
2020/12/20 06:13:55;;;;;;;43.78;32.28;;;;;;;0.24;81.72;101257.84;126380;1101;24018;-75
2020/12/20 06:16:27;;;;;;;44.08;28.67;;;;;;;0.22;81.70;101267.81;126521;1100;23371;-74
2020/12/20 06:19:03;;;;;;;39.38;26.90;;;;;;;0.19;81.71;101275.11;126419;1102;23540;-72
2020/12/20 06:21:59;;;;;;;37.80;24.90;;;;;;;0.18;81.74;101273.38;126468;1098;23382;-73
2020/12/20 06:24:27;;;;;;;33.45;21.75;;;;;;;0.17;81.80;101277.03;126577;1098;23392;-73
2020/12/20 06:27:02;;;;;;;29.77;19.70;;;;;;;0.15;81.54;101278.07;126419;1098;23414;-73
2020/12/20 06:29:31;;;;;;;30.70;22.00;;;;;;;0.15;81.54;101278.95;126474;1099;26815;-73
2020/12/20 06:32:03;;;;;;;30.77;18.77;;;;;;;0.16;81.72;101287.86;126517;1100;23621;-73
2020/12/20 06:34:31;;;;;;;33.80;22.58;;;;;;;0.14;81.67;101287.09;126480;1098;23382;-72
2020/12/20 06:37:00;;;;;;;47.85;28.83;;;;;;;0.12;81.69;101289.88;126461;1100;23382;-72
2020/12/20 06:39:39;;;;;;;42.50;26.40;;;;;;;0.13;81.77;101296.98;126470;1100;23403;-72
2020/12/20 06:42:08;;;;;;;42.48;26.62;;;;;;;0.13;82.01;101296.12;126651;1100;24184;-72
2020/12/20 06:44:36;;;;;;;45.80;30.32;;;;;;;0.14;81.77;101293.31;126463;1098;23431;-75
2020/12/20 06:47:05;;;;;;;61.30;37.63;;;;;;;0.14;81.48;101303.20;126363;1100;23434;-72
2020/12/20 06:49:41;;;;;;;50.95;30.37;;;;;;;0.14;82.07;101297.83;126420;1100;28117;-74
2020/12/20 06:52:22;;;;;;;43.28;30.00;;;;;;;0.14;82.01;101298.69;126483;1100;23347;-73
2020/12/20 06:55:09;;;;;;;58.60;41.20;;;;;;;0.15;81.63;101299.53;126433;1100;23445;-73
2020/12/20 06:58:03;;;;;;;64.17;36.55;;;;;;;0.17;81.95;101309.23;126336;1100;23438;-72
2020/12/20 07:00:50;;;;;;;62.23;31.90;;;;;;;0.16;82.07;101306.64;126408;1100;23492;-72
2020/12/20 07:03:24;;;;;;;46.37;27.58;;;;;;;0.16;82.02;101306.64;126467;1100;23361;-72
2020/12/20 07:05:56;;;;;;;44.73;28.92;;;;;;;0.15;82.16;101312.95;127128;1098;23369;-72
2020/12/20 07:08:27;;;;;;;51.85;32.33;;;;;;;0.16;82.02;101320.06;126587;1100;23480;-73
2020/12/20 07:10:59;;;;;;;43.65;28.32;;;;;;;0.17;81.88;101319.08;126442;1100;23332;-73
2020/12/20 07:13:39;;;;;;;49.55;29.63;;;;;;;0.17;82.10;101322.66;126506;1101;26434;-72
2020/12/20 07:16:09;;;;;;;46.20;30.57;;;;;;;0.17;82.12;101317.28;126433;1100;25479;-74
2020/12/20 07:18:58;;;;;;;48.07;29.33;;;;;;;0.20;82.05;101314.38;126432;1100;23336;-73
2020/12/20 07:21:30;;;;;;;49.93;28.70;;;;;;;0.24;82.20;101314.20;126489;1100;26896;-72
2020/12/20 07:24:31;;;;;;;64.45;35.48;;;;;;;0.25;82.03;101315.91;126419;1099;24043;-74
2020/12/20 07:27:04;;;;;;;50.65;33.40;;;;;;;0.26;82.10;101318.50;126439;1098;23366;-72
2020/12/20 07:29:35;;;;;;;57.98;37.63;;;;;;;0.29;81.95;101326.33;126505;1100;26472;-72
2020/12/20 07:32:04;;;;;;;45.63;31.50;;;;;;;0.31;82.08;101320.88;126376;1100;23331;-75
2020/12/20 07:34:34;;;;;;;48.28;30.17;;;;;;;0.33;82.31;101318.95;126484;1100;26415;-78
2020/12/20 07:37:03;;;;;;;47.78;33.35;;;;;;;0.36;82.02;101316.05;126383;1100;24293;-78
2020/12/20 07:39:31;;;;;;;58.25;36.45;;;;;;;0.34;82.37;101318.86;126356;1100;24962;-78
2020/12/20 07:42:00;;;;;;;49.93;32.98;;;;;;;0.45;82.62;101322.63;126413;1101;26509;-77
2020/12/20 07:44:35;;;;;;;61.87;38.77;;;;;;;0.47;82.33;101313.53;126427;1100;23362;-77
2020/12/20 07:47:11;;;;;;;73.60;43.33;;;;;;;0.51;82.45;101319.53;126460;1100;23324;-77
2020/12/20 07:49:40;;;;;;;61.70;35.50;;;;;;;0.54;82.50;101317.52;126491;1100;23406;-77
2020/12/20 07:52:09;;;;;;;77.15;44.60;;;;;;;0.58;82.56;101321.72;126426;1100;26434;-78
2020/12/20 07:54:38;;;;;;;62.35;36.88;;;;;;;0.63;82.40;101318.72;126473;1100;23328;-77
2020/12/20 07:57:06;;;;;;;69.22;42.00;;;;;;;0.67;82.30;101308.64;126410;1100;23346;-78
2020/12/20 07:59:35;;;;;;;71.40;41.65;;;;;;;0.71;82.57;101318.21;126432;1101;23388;-78
2020/12/20 08:02:03;;;;;;;93.22;51.02;;;;;;;0.75;82.38;101314.35;126425;1100;23403;-78
2020/12/20 08:04:32;;;;;;;93.60;50.67;;;;;;;0.79;82.60;101310.46;126447;1100;23796;-74
2020/12/20 08:07:00;;;;;;;104.72;57.60;;;;;;;0.86;82.47;101309.09;126570;1100;23431;-73
2020/12/20 08:09:29;;;;;;;99.47;55.60;;;;;;;0.91;82.40;101315.00;126508;1100;23340;-74
2020/12/20 08:11:58;;;;;;;99.42;54.08;;;;;;;0.95;82.51;101319.20;126418;1100;23334;-73
2020/12/20 08:14:26;;;;;;;121.97;67.22;;;;;;;0.98;82.64;101308.27;126448;1101;24171;-74
2020/12/20 08:16:54;;;;;;;101.58;55.75;;;;;;;1.02;82.47;101322.32;126403;1100;23448;-74
2020/12/20 08:19:31;;;;;;;93.83;52.67;;;;;;;1.05;82.22;101319.44;126382;1100;23537;-75
2020/12/20 08:22:14;;;;;;;94.25;48.42;;;;;;;1.09;82.57;101320.06;126424;1100;23401;-75
2020/12/20 08:24:47;;;;;;;97.37;46.97;;;;;;;1.13;82.67;101321.58;126399;1100;23382;-74
2020/12/20 08:27:27;;;;;;;92.50;44.95;;;;;;;1.18;82.71;101319.45;126430;1100;23400;-74
2020/12/20 08:30:00;;;;;;;80.90;44.15;;;;;;;1.24;82.59;101329.77;126419;1100;23341;-75
2020/12/20 08:32:40;;;;;;;;;;;;;;;1.30;82.80;101325.77;126526;1100;26475;-73
2020/12/20 08:35:18;;;;;;;77.55;38.60;;;;;;;1.34;82.74;101328.14;126492;1100;21497;-74
2020/12/20 08:38:00;;;;;;;80.05;40.73;;;;;;;1.41;82.75;101329.44;126525;1100;23328;-74
2020/12/20 08:40:32;;;;;;;76.62;37.63;;;;;;;1.48;82.79;101329.02;126471;1100;25194;-74
2020/12/20 08:43:02;;;;;;;70.92;37.08;;;;;;;1.57;82.82;101331.04;126432;1100;23388;-74
2020/12/20 08:45:31;;;;;;;58.42;33.90;;;;;;;1.63;82.54;101319.84;126366;1100;23330;-74
2020/12/20 08:48:04;;;;;;;74.37;40.25;;;;;;;1.71;82.98;101322.84;126376;1100;25406;-74
2020/12/20 08:50:32;;;;;;;;;;;;;;;1.78;83.10;101329.49;126567;1100;23338;-74
2020/12/20 08:53:05;;;;;;;72.40;38.98;;;;;;;1.86;83.08;101334.34;126379;1100;24504;-73
2020/12/20 08:55:34;;;;;;;66.20;37.48;;;;;;;1.95;83.07;101325.58;126503;1100;23438;-74
2020/12/20 08:58:07;;;;;;;54.33;35.55;;;;;;;2.02;83.40;101328.68;126439;1100;23379;-73
2020/12/20 09:00:37;;;;;;;59.13;35.77;;;;;;;2.11;83.15;101322.61;126392;1100;23381;-73
2020/12/20 09:03:06;;;;;;;51.37;30.35;;;;;;;2.20;82.90;101324.64;126355;1100;27245;-73
2020/12/20 09:05:35;;;;;;;62.23;35.23;;;;;;;2.29;82.87;101325.80;126455;1100;26926;-73
2020/12/20 09:08:05;;;;;;;55.00;32.45;;;;;;;2.39;83.35;101325.95;126456;1100;23331;-73
2020/12/20 09:10:35;;;;;;;53.87;32.45;;;;;;;2.49;83.24;101318.91;126455;1100;23400;-75
2020/12/20 09:13:07;;;;;;;44.58;28.87;;;;;;;2.59;83.26;101328.02;126350;1100;23430;-74
2020/12/20 09:15:39;;;;;;;41.90;26.70;;;;;;;2.69;83.35;101327.31;126486;1100;23540;-73
2020/12/20 09:18:18;;;;;;;;;;;;;;;2.78;83.13;101334.72;126389;1100;23438;-75
2020/12/20 09:20:48;;;;;;;61.07;32.57;;;;;;;2.86;83.20;101332.30;126370;1098;21508;-73
2020/12/20 09:23:22;;;;;;;56.27;39.33;;;;;;;2.96;83.25;101327.89;126371;1100;23386;-73
2020/12/20 09:25:59;;;;;;;49.27;31.90;;;;;;;3.08;83.08;101338.73;126349;1100;23334;-74
2020/12/20 09:28:32;;;;;;;61.80;38.83;;;;;;;3.20;82.85;101324.27;126533;1100;23354;-74
2020/12/20 09:31:11;;;;;;;63.38;39.95;;;;;;;3.31;82.79;101324.30;126339;1100;23399;-72
2020/12/20 09:33:47;;;;;;;61.80;42.43;;;;;;;3.44;82.83;101322.35;126500;1100;23365;-74
2020/12/20 09:36:24;;;;;;;68.05;45.83;;;;;;;3.58;82.84;101312.30;126507;1099;23336;-75
2020/12/20 09:39:03;;;;;;;46.93;34.83;;;;;;;3.70;83.03;101330.20;126981;1098;23785;-74
2020/12/20 09:41:35;;;;;;;54.67;37.08;;;;;;;3.80;82.71;101322.24;126405;1101;23339;-73
2020/12/20 09:44:04;;;;;;;38.58;28.32;;;;;;;3.93;82.85;101320.26;126694;1098;23346;-75
2020/12/20 09:46:35;;;;;;;38.88;24.32;;;;;;;4.04;82.75;101313.98;126842;1100;23469;-76
2020/12/20 09:49:05;;;;;;;30.90;23.43;;;;;;;4.12;82.44;101313.33;126529;1100;23386;-74
2020/12/20 09:51:34;;;;;;;28.60;19.75;;;;;;;4.14;82.22;101317.65;126406;1100;26866;-75
2020/12/20 09:54:02;;;;;;;36.60;23.83;;;;;;;4.18;81.83;101319.11;126394;1100;23473;-74
2020/12/20 09:56:31;;;;;;;40.43;23.02;;;;;;;4.24;81.43;101317.73;126408;1100;23396;-75
2020/12/20 09:59:02;;;;;;;35.17;23.62;;;;;;;4.28;81.39;101321.89;126368;1100;23328;-75
2020/12/20 10:01:32;;;;;;;35.05;23.87;;;;;;;4.33;80.84;101318.80;126358;1100;23392;-75
2020/12/20 10:04:00;;;;;;;33.42;21.80;;;;;;;4.41;80.68;101324.44;126398;1100;24005;-74
2020/12/20 10:06:28;;;;;;;38.35;26.50;;;;;;;4.48;80.90;101317.52;126389;1100;26538;-75
2020/12/20 10:08:56;;;;;;;32.80;21.42;;;;;;;4.51;80.31;101319.98;126350;1100;23412;-73
2020/12/20 10:11:25;;;;;;;35.35;24.25;;;;;;;4.56;80.75;101306.08;126517;1098;23533;-75
2020/12/20 10:13:55;;;;;;;30.08;20.80;;;;;;;4.62;80.46;101314.53;126544;1099;23385;-76
2020/12/20 10:16:24;;;;;;;31.77;20.62;;;;;;;4.67;80.15;101315.02;126394;1100;23788;-73
2020/12/20 10:18:52;;;;;;;33.35;24.32;;;;;;;4.76;80.46;101320.61;126408;1100;23314;-75
2020/12/20 10:21:20;;;;;;;31.67;20.90;;;;;;;4.86;79.82;101321.55;126379;1100;26792;-75
2020/12/20 10:23:50;;;;;;;29.07;22.17;;;;;;;4.94;79.35;101321.75;126418;1100;24390;-75
2020/12/20 10:26:18;;;;;;;35.35;24.87;;;;;;;5.05;79.60;101324.39;126405;1100;23445;-76
2020/12/20 10:28:47;;;;;;;31.07;20.92;;;;;;;5.18;79.63;101317.92;126728;1100;23461;-74
2020/12/20 10:31:21;;;;;;;34.10;24.53;;;;;;;5.31;79.54;101327.56;126878;1098;23311;-75
2020/12/20 10:33:49;;;;;;;33.60;23.85;;;;;;;5.43;78.83;101322.06;126414;1100;23405;-74
2020/12/20 10:36:17;;;;;;;39.73;28.73;;;;;;;5.52;79.54;101313.98;127224;1098;23331;-74
2020/12/20 10:38:45;;;;;;;33.80;22.52;;;;;;;5.60;78.02;101320.59;126440;1100;23423;-74
2020/12/20 10:41:17;;;;;;;29.42;19.57;;;;;;;5.61;77.78;101319.58;126730;1100;23325;-74
2020/12/20 10:43:45;;;;;;;35.75;25.95;;;;;;;5.65;77.35;101308.33;126555;1100;23382;-75
2020/12/20 10:46:14;;;;;;;36.25;26.80;;;;;;;5.71;77.61;101315.06;126656;1098;23331;-76
2020/12/20 10:48:42;;;;;;;32.65;24.60;;;;;;;5.80;77.53;101325.06;127061;1098;23525;-76
2020/12/20 10:51:11;;;;;;;30.85;21.60;;;;;;;5.86;77.70;101310.14;126609;1098;23341;-75
2020/12/20 10:53:40;;;;;;;29.77;21.27;;;;;;;5.89;76.49;101323.42;126746;1101;23331;-75
2020/12/20 10:56:09;;;;;;;31.52;22.42;;;;;;;5.89;76.19;101313.44;126978;1098;23318;-75
2020/12/20 10:58:38;;;;;;;34.80;23.70;;;;;;;5.92;76.57;101312.30;126775;1101;23761;-75
2020/12/20 11:01:06;;;;;;;36.77;23.67;;;;;;;5.96;76.38;101305.64;126969;1098;23399;-76
2020/12/20 11:03:35;;;;;;;35.05;25.55;;;;;;;6.01;75.74;101314.20;126935;1098;23392;-74
2020/12/20 11:06:03;;;;;;;30.15;21.25;;;;;;;6.03;75.76;101314.92;126864;1098;26408;-74
2020/12/20 11:08:31;;;;;;;33.35;22.60;;;;;;;6.06;75.94;101308.36;126524;1100;23514;-74
2020/12/20 11:11:00;;;;;;;34.80;25.10;;;;;;;6.06;75.28;101302.94;126580;1100;23302;-76
2020/12/20 11:13:28;;;;;;;34.88;23.98;;;;;;;6.08;74.95;101312.67;126565;1100;23323;-75
2020/12/20 11:15:57;;;;;;;34.20;23.12;;;;;;;6.06;75.44;101302.94;126576;1100;24393;-77
2020/12/20 11:18:25;;;;;;;35.05;25.20;;;;;;;6.03;75.25;101309.50;126962;1098;23431;-74
2020/12/20 11:20:53;;;;;;;30.55;21.55;;;;;;;6.00;74.94;101319.78;126580;1100;23324;-74
2020/12/20 11:23:22;;;;;;;27.65;20.12;;;;;;;5.95;74.70;101305.77;126605;1100;23533;-77
2020/12/20 11:26:00;;;;;;;26.30;19.23;;;;;;;5.88;74.02;101303.58;127077;1098;23404;-75
2020/12/20 11:28:28;;;;;;;22.58;16.23;;;;;;;5.82;74.44;101311.41;126626;1098;23353;-75
2020/12/20 11:30:56;;;;;;;23.95;17.12;;;;;;;5.72;74.18;101306.81;126614;1098;26436;-74
2020/12/20 11:33:24;;;;;;;23.52;16.32;;;;;;;5.65;73.88;101311.05;126580;1098;23395;-74